Time;durP1;ratioP1;P1;durP2;ratioP2;P2;SDS_P1;SDS_P2;PMS_P1;PMS_P2;Temp;Humidity;BMP_temperature;BMP_pressure;BME280_temperature;BME280_humidity;BME280_pressure;Samples;Min_cycle;Max_cycle;Signal;HPM_P1;HPM_P2
2023/11/03 00:00:07;;;;;;;5.70;3.72;;;9.30;99.90;;;;;;4997058;28;20022;-75
2023/11/03 00:02:33;;;;;;;5.55;3.53;;;9.10;99.90;;;;;;4996793;28;20033;-76
2023/11/03 00:05:02;;;;;;;5.25;3.47;;;9.10;99.90;;;;;;4991286;28;20026;-76
2023/11/03 00:07:30;;;;;;;6.38;4.50;;;9.20;99.90;;;;;;4993910;28;20034;-76
2023/11/03 00:09:57;;;;;;;38.15;6.38;;;9.10;99.90;;;;;;4993402;28;20121;-76
2023/11/03 00:12:24;;;;;;;10.13;5.22;;;9.00;99.90;;;;;;4995322;28;20678;-76
2023/11/03 00:14:50;;;;;;;9.52;5.22;;;9.00;99.90;;;;;;4999461;28;20026;-76
2023/11/03 00:17:16;;;;;;;14.43;7.70;;;9.00;99.90;;;;;;4994395;28;20097;-76
2023/11/03 00:19:42;;;;;;;17.38;10.68;;;9.10;99.90;;;;;;4997411;28;20050;-76
2023/11/03 00:22:07;;;;;;;8.43;6.00;;;9.10;99.90;;;;;;5001306;28;20038;-76
2023/11/03 00:24:33;;;;;;;5.43;4.03;;;9.00;99.90;;;;;;5003328;28;20030;-76
2023/11/03 00:26:59;;;;;;;5.05;4.05;;;9.00;99.90;;;;;;4995414;28;20054;-76
2023/11/03 00:29:25;;;;;;;7.18;4.32;;;9.10;99.90;;;;;;4993329;28;20041;-76
2023/11/03 00:31:51;;;;;;;4.78;3.50;;;9.20;99.90;;;;;;4997967;28;20056;-76
2023/11/03 00:34:18;;;;;;;6.07;3.10;;;9.20;99.90;;;;;;4993705;28;20461;-76
2023/11/03 00:36:47;;;;;;;5.97;4.25;;;9.20;99.90;;;;;;4997248;28;20038;-76
2023/11/03 00:39:14;;;;;;;5.13;2.80;;;9.10;99.90;;;;;;4994953;28;20127;-76
2023/11/03 00:41:40;;;;;;;4.95;2.78;;;9.20;99.90;;;;;;4997334;28;20472;-76
2023/11/03 00:44:07;;;;;;;2.75;1.70;;;9.20;99.90;;;;;;4992742;28;20433;-76
2023/11/03 00:46:35;;;;;;;3.08;1.80;;;9.20;99.90;;;;;;4994792;28;20487;-76
2023/11/03 00:49:02;;;;;;;3.25;1.77;;;9.20;99.90;;;;;;4992703;28;20500;-76
2023/11/03 00:51:28;;;;;;;2.40;1.45;;;9.20;99.90;;;;;;4993806;28;20061;-76
2023/11/03 00:53:53;;;;;;;2.50;1.48;;;9.20;99.90;;;;;;4990526;28;20054;-76
2023/11/03 00:56:20;;;;;;;3.00;1.73;;;9.20;99.90;;;;;;4991044;28;20034;-77
2023/11/03 00:58:46;;;;;;;3.80;2.33;;;9.30;99.90;;;;;;4993842;28;20026;-76
2023/11/03 01:01:13;;;;;;;4.15;2.35;;;9.30;99.90;;;;;;4995165;28;20022;-76
2023/11/03 01:03:39;;;;;;;4.13;2.10;;;9.30;99.90;;;;;;5003190;28;20026;-76
2023/11/03 01:06:07;;;;;;;3.78;2.28;;;9.20;99.90;;;;;;4995132;28;20042;-76
2023/11/03 01:08:33;;;;;;;9.60;4.88;;;9.30;99.90;;;;;;4991872;28;20022;-75
2023/11/03 01:10:59;;;;;;;8.30;4.93;;;9.30;99.90;;;;;;4995299;28;20088;-76
2023/11/03 01:13:27;;;;;;;7.45;4.55;;;9.30;99.90;;;;;;5002093;28;20550;-76
2023/11/03 01:15:52;;;;;;;8.55;5.72;;;9.30;99.90;;;;;;4993843;28;20034;-76
2023/11/03 01:18:18;;;;;;;8.43;3.45;;;9.30;99.90;;;;;;4993259;28;20366;-76
2023/11/03 01:20:48;;;;;;;5.32;3.03;;;9.30;99.90;;;;;;4995409;28;20026;-76
2023/11/03 01:23:14;;;;;;;4.35;2.35;;;9.20;99.90;;;;;;4992346;28;20026;-77
2023/11/03 01:25:43;;;;;;;3.00;1.67;;;9.10;99.90;;;;;;4995149;28;20504;-76
2023/11/03 01:28:08;;;;;;;3.08;1.88;;;9.20;99.90;;;;;;4994118;28;20034;-76
2023/11/03 01:30:34;;;;;;;3.30;1.90;;;9.30;99.90;;;;;;4998383;28;20034;-77
2023/11/03 01:33:00;;;;;;;6.07;3.88;;;9.20;99.90;;;;;;4993647;28;20049;-76
2023/11/03 01:35:25;;;;;;;4.80;2.30;;;9.30;99.90;;;;;;4991759;28;20034;-76
2023/11/03 01:37:53;;;;;;;3.78;2.15;;;9.30;99.90;;;;;;5003559;28;20508;-77
2023/11/03 01:40:19;;;;;;;3.97;2.28;;;9.30;99.90;;;;;;4989453;28;20034;-76
2023/11/03 01:42:48;;;;;;;4.03;2.00;;;9.30;99.90;;;;;;4991179;28;20365;-77
2023/11/03 01:45:14;;;;;;;3.40;1.48;;;9.30;99.90;;;;;;4994107;28;20037;-76
2023/11/03 01:47:39;;;;;;;4.82;1.95;;;9.40;99.90;;;;;;4994258;28;20384;-76
2023/11/03 01:50:06;;;;;;;6.15;4.32;;;9.40;99.90;;;;;;4990540;28;20494;-75
2023/11/03 01:52:36;;;;;;;6.10;3.33;;;9.40;99.90;;;;;;4993579;28;20129;-76
2023/11/03 01:55:02;;;;;;;4.00;2.35;;;9.40;99.90;;;;;;4997176;28;20416;-76
2023/11/03 01:57:29;;;;;;;4.00;1.90;;;9.40;99.90;;;;;;4993627;28;20049;-76
2023/11/03 01:59:56;;;;;;;2.90;1.70;;;9.40;99.90;;;;;;4993124;28;20045;-76
2023/11/03 02:02:27;;;;;;;3.80;2.15;;;9.40;99.90;;;;;;4989482;28;20113;-76
2023/11/03 02:04:52;;;;;;;27.42;4.85;;;9.40;99.90;;;;;;4996262;28;20042;-76
2023/11/03 02:07:18;;;;;;;7.70;4.53;;;9.40;99.90;;;;;;4997229;28;20030;-76
2023/11/03 02:09:44;;;;;;;8.52;5.32;;;9.30;99.90;;;;;;4994616;28;20480;-76
2023/11/03 02:12:11;;;;;;;7.25;5.68;;;9.30;99.90;;;;;;4990850;28;20044;-76
2023/11/03 02:14:36;;;;;;;7.47;5.13;;;9.20;99.90;;;;;;4991630;28;20065;-76
2023/11/03 02:17:03;;;;;;;5.65;4.05;;;9.20;99.90;;;;;;4990867;28;20057;-76
2023/11/03 02:19:30;;;;;;;6.00;4.55;;;9.20;99.90;;;;;;4989249;28;20053;-76
2023/11/03 02:21:56;;;;;;;6.40;4.25;;;9.20;99.90;;;;;;4994991;28;20034;-76
2023/11/03 02:24:21;;;;;;;4.82;3.63;;;9.20;99.90;;;;;;5004146;28;20040;-76
2023/11/03 02:26:47;;;;;;;5.45;3.38;;;9.30;99.90;;;;;;4992546;28;20044;-76
2023/11/03 02:29:13;;;;;;;4.93;2.65;;;9.20;99.90;;;;;;4991049;28;20034;-76
2023/11/03 02:31:40;;;;;;;5.35;2.80;;;9.30;99.90;;;;;;4997170;28;20037;-76
2023/11/03 02:34:07;;;;;;;4.18;2.42;;;9.20;99.90;;;;;;4993123;28;20037;-76
2023/11/03 02:36:33;;;;;;;4.18;2.40;;;9.30;99.90;;;;;;4992032;28;20033;-77
2023/11/03 02:38:59;;;;;;;4.15;2.50;;;9.30;99.90;;;;;;4993777;28;20026;-76
2023/11/03 02:41:25;;;;;;;4.03;2.47;;;9.20;99.90;;;;;;4989117;28;20041;-76
2023/11/03 02:43:50;;;;;;;4.00;3.22;;;9.20;99.90;;;;;;4991572;28;20027;-77
2023/11/03 02:46:16;;;;;;;4.60;3.03;;;9.30;99.90;;;;;;4992053;28;20022;-76
2023/11/03 02:48:42;;;;;;;6.65;3.05;;;9.30;99.90;;;;;;4988577;28;20080;-76
2023/11/03 02:51:08;;;;;;;4.75;2.80;;;9.40;99.90;;;;;;4992917;28;20034;-77
2023/11/03 02:53:34;;;;;;;4.00;2.60;;;9.30;99.90;;;;;;4988880;28;20030;-76
2023/11/03 02:56:00;;;;;;;4.40;2.58;;;9.20;99.90;;;;;;4992264;28;20053;-76
2023/11/03 02:58:29;;;;;;;3.03;1.67;;;9.30;99.90;;;;;;4989328;28;20485;-76
2023/11/03 03:00:55;;;;;;;1.75;0.90;;;9.20;99.90;;;;;;4992205;28;20113;-76
2023/11/03 03:03:21;;;;;;;2.33;1.08;;;9.20;99.90;;;;;;4990588;28;20548;-76
2023/11/03 03:05:46;;;;;;;1.75;1.00;;;9.20;99.90;;;;;;4991953;28;20053;-76
2023/11/03 03:08:12;;;;;;;2.55;1.17;;;9.20;99.90;;;;;;4989231;28;20030;-76
2023/11/03 03:10:38;;;;;;;2.10;1.20;;;9.30;99.90;;;;;;4992695;28;20489;-76
2023/11/03 03:13:04;;;;;;;2.67;1.10;;;9.30;99.90;;;;;;4990379;28;20499;-76
2023/11/03 03:15:30;;;;;;;2.67;1.33;;;9.40;99.90;;;;;;4990951;28;20502;-76
2023/11/03 03:17:56;;;;;;;3.17;1.35;;;9.30;99.90;;;;;;4990490;28;20046;-76
2023/11/03 03:20:22;;;;;;;2.80;1.00;;;9.30;99.90;;;;;;4992030;28;20041;-77
2023/11/03 03:22:48;;;;;;;2.28;1.00;;;9.30;99.90;;;;;;4991178;28;20030;-76
2023/11/03 03:25:14;;;;;;;1.95;1.00;;;9.20;99.90;;;;;;4997031;28;20027;-76
2023/11/03 03:27:40;;;;;;;2.35;1.17;;;9.20;99.90;;;;;;4993315;28;20061;-77
2023/11/03 03:30:06;;;;;;;5.50;1.00;;;9.20;99.90;;;;;;4992901;28;20034;-76
2023/11/03 03:32:32;;;;;;;2.03;0.75;;;9.20;99.90;;;;;;4989607;28;20030;-76
2023/11/03 03:34:58;;;;;;;1.52;0.70;;;9.20;99.90;;;;;;4992528;28;20029;-77
2023/11/03 03:37:24;;;;;;;2.22;0.80;;;9.20;99.90;;;;;;4990161;28;20041;-76
2023/11/03 03:39:49;;;;;;;1.40;0.88;;;9.20;99.90;;;;;;4990169;28;20042;-76
2023/11/03 03:42:15;;;;;;;0.82;0.50;;;9.10;99.90;;;;;;4992707;28;20034;-77
2023/11/03 03:44:41;;;;;;;1.35;0.70;;;9.20;99.90;;;;;;4995152;28;20023;-76
2023/11/03 03:47:09;;;;;;;1.67;0.85;;;9.20;99.90;;;;;;4989278;28;20109;-76
2023/11/03 03:49:35;;;;;;;1.20;0.60;;;9.20;99.90;;;;;;4990947;28;20054;-77
2023/11/03 03:52:02;;;;;;;1.10;0.45;;;9.30;99.90;;;;;;4993055;28;20030;-76
2023/11/03 03:54:28;;;;;;;1.27;0.55;;;9.30;99.90;;;;;;4990286;28;20049;-76
2023/11/03 03:56:53;;;;;;;1.55;0.98;;;9.30;99.90;;;;;;4996861;28;20046;-76
2023/11/03 03:59:19;;;;;;;2.90;0.90;;;9.30;99.90;;;;;;5003530;28;20578;-76
2023/11/03 04:01:46;;;;;;;1.45;0.68;;;9.20;99.90;;;;;;4993201;28;20033;-76
2023/11/03 04:04:11;;;;;;;1.15;0.77;;;9.10;99.90;;;;;;4994832;28;20049;-76
2023/11/03 04:06:37;;;;;;;1.75;0.60;;;9.20;99.90;;;;;;4989483;28;20105;-76
2023/11/03 04:09:03;;;;;;;1.52;0.80;;;9.20;99.90;;;;;;4993165;28;20138;-76
2023/11/03 04:11:29;;;;;;;1.08;0.60;;;9.30;99.90;;;;;;4989386;28;20034;-76
2023/11/03 04:13:55;;;;;;;0.85;0.40;;;9.20;99.90;;;;;;4988606;28;20026;-76
2023/11/03 04:16:21;;;;;;;0.82;0.45;;;9.20;99.90;;;;;;4985411;28;20049;-76
2023/11/03 04:18:47;;;;;;;1.80;1.10;;;9.30;99.90;;;;;;4987887;28;20041;-76
2023/11/03 04:21:13;;;;;;;1.27;0.80;;;9.20;99.90;;;;;;4988892;28;20034;-76
2023/11/03 04:23:38;;;;;;;1.67;0.80;;;9.20;99.90;;;;;;4995457;28;20026;-77
2023/11/03 04:26:04;;;;;;;1.67;0.70;;;9.20;99.90;;;;;;4998939;28;20065;-76
2023/11/03 04:28:30;;;;;;;1.30;0.85;;;9.20;99.90;;;;;;4989762;28;20444;-76
2023/11/03 04:30:56;;;;;;;1.02;0.55;;;9.30;99.90;;;;;;4993480;28;20113;-76
2023/11/03 04:33:21;;;;;;;3.25;0.80;;;9.30;99.90;;;;;;4994068;28;20091;-76
2023/11/03 04:35:47;;;;;;;1.92;0.93;;;9.30;99.90;;;;;;4991974;28;20069;-75
2023/11/03 04:38:13;;;;;;;1.38;0.70;;;9.30;99.90;;;;;;5005687;28;20065;-76
2023/11/03 04:40:39;;;;;;;1.63;1.17;;;9.30;99.90;;;;;;4996471;28;20586;-76
2023/11/03 04:43:04;;;;;;;1.90;0.90;;;9.20;99.90;;;;;;4995189;28;20038;-76
2023/11/03 04:45:30;;;;;;;1.00;0.60;;;9.20;99.90;;;;;;4991442;28;20479;-76
2023/11/03 04:47:56;;;;;;;0.73;0.50;;;9.20;99.90;;;;;;4990995;28;20026;-76
2023/11/03 04:50:22;;;;;;;0.60;0.40;;;9.20;99.90;;;;;;4991369;28;20432;-76
2023/11/03 04:52:47;;;;;;;0.93;0.60;;;9.30;99.90;;;;;;5003527;28;20031;-76
2023/11/03 04:55:13;;;;;;;1.65;0.63;;;9.30;99.90;;;;;;4995943;28;20034;-76
2023/11/03 04:57:39;;;;;;;1.58;0.77;;;9.30;99.90;;;;;;4993474;28;20065;-76
2023/11/03 05:00:12;;;;;;;1.67;1.00;;;9.30;99.90;;;;;;4987093;28;20037;-75
2023/11/03 05:02:38;;;;;;;1.60;0.80;;;9.30;99.90;;;;;;4989851;28;20041;-76
2023/11/03 05:05:04;;;;;;;1.50;0.73;;;9.20;99.90;;;;;;4988633;28;20030;-76
2023/11/03 05:07:34;;;;;;;1.05;0.60;;;9.30;99.90;;;;;;4986717;28;22064;-76
2023/11/03 05:10:00;;;;;;;1.30;0.82;;;9.20;99.90;;;;;;4989318;28;20042;-76
2023/11/03 05:12:26;;;;;;;1.67;1.08;;;9.20;99.90;;;;;;4995214;28;20112;-76
2023/11/03 05:14:51;;;;;;;1.98;1.17;;;9.20;99.90;;;;;;4988821;28;20532;-76
2023/11/03 05:17:17;;;;;;;1.98;1.10;;;9.20;99.90;;;;;;4990422;28;20052;-76
2023/11/03 05:19:43;;;;;;;2.80;1.20;;;9.20;99.90;;;;;;4994782;28;20029;-76
2023/11/03 05:22:09;;;;;;;3.30;2.10;;;9.10;99.90;;;;;;4992537;28;20044;-76
2023/11/03 05:24:35;;;;;;;2.30;1.50;;;9.20;99.90;;;;;;4988826;28;20034;-76
2023/11/03 05:27:01;;;;;;;2.05;1.42;;;9.20;99.90;;;;;;5001979;28;20547;-76
2023/11/03 05:29:27;;;;;;;3.70;2.20;;;9.10;99.90;;;;;;4990958;28;20400;-76
2023/11/03 05:31:53;;;;;;;4.43;2.10;;;9.10;99.90;;;;;;4988841;28;20045;-76
2023/11/03 05:34:19;;;;;;;2.47;1.67;;;9.20;99.90;;;;;;4991210;28;20472;-76
2023/11/03 05:36:45;;;;;;;3.83;2.15;;;9.20;99.90;;;;;;4987411;28;20030;-76
2023/11/03 05:39:12;;;;;;;4.05;2.72;;;9.10;99.90;;;;;;4987957;28;20124;-76
2023/11/03 05:41:38;;;;;;;4.18;2.53;;;9.10;99.90;;;;;;4991664;28;20409;-76
2023/11/03 05:44:04;;;;;;;4.18;2.38;;;9.10;99.90;;;;;;5002558;28;20038;-76
2023/11/03 05:46:31;;;;;;;2.60;1.55;;;9.10;99.90;;;;;;4992370;28;20654;-76
2023/11/03 05:48:57;;;;;;;3.33;1.80;;;9.10;99.90;;;;;;4988603;28;20771;-76
2023/11/03 05:51:23;;;;;;;1.58;1.00;;;9.10;99.90;;;;;;4986759;28;20038;-76
2023/11/03 05:53:50;;;;;;;2.03;1.15;;;9.10;99.90;;;;;;4986581;28;20034;-76
2023/11/03 05:56:16;;;;;;;1.95;0.98;;;9.20;99.90;;;;;;4995614;28;20121;-76
2023/11/03 05:58:42;;;;;;;2.03;1.20;;;9.20;99.90;;;;;;4988465;28;20034;-76
2023/11/03 06:01:07;;;;;;;2.28;1.40;;;9.10;99.90;;;;;;4987745;28;20054;-76
2023/11/03 06:03:36;;;;;;;1.67;1.00;;;9.10;99.90;;;;;;4985512;28;20026;-76
2023/11/03 06:06:06;;;;;;;3.85;1.08;;;9.10;99.90;;;;;;4985928;28;20030;-76
2023/11/03 06:08:32;;;;;;;1.30;0.90;;;9.10;99.90;;;;;;4989265;28;20081;-77
2023/11/03 06:10:58;;;;;;;73.25;51.97;;;9.10;99.90;;;;;;4985857;28;20038;-76
2023/11/03 06:13:23;;;;;;;15.15;9.98;;;9.20;99.90;;;;;;5000808;28;20460;-76
2023/11/03 06:15:49;;;;;;;3.25;1.77;;;9.20;99.90;;;;;;4991806;28;20392;-75
2023/11/03 06:18:15;;;;;;;3.92;1.58;;;9.20;99.90;;;;;;4991898;28;20034;-76
2023/11/03 06:20:41;;;;;;;1.23;0.73;;;9.20;99.90;;;;;;4988869;28;20105;-76
2023/11/03 06:23:06;;;;;;;1.98;0.93;;;9.10;99.90;;;;;;4986093;28;20444;-77
2023/11/03 06:25:32;;;;;;;2.50;1.45;;;9.10;99.90;;;;;;4990365;28;20034;-78
2023/11/03 06:27:58;;;;;;;4.22;1.60;;;9.10;99.90;;;;;;4994819;28;20030;-76
2023/11/03 06:30:24;;;;;;;2.00;1.10;;;9.00;99.90;;;;;;4985393;28;20022;-76
2023/11/03 06:32:50;;;;;;;1.83;1.10;;;9.10;99.90;;;;;;4987211;28;20030;-75
2023/11/03 06:35:16;;;;;;;2.35;1.08;;;9.10;99.90;;;;;;4981460;28;20023;-76
2023/11/03 06:37:42;;;;;;;1.40;0.63;;;9.00;99.90;;;;;;4987646;28;20038;-76
2023/11/03 06:40:11;;;;;;;1.40;0.80;;;9.00;99.90;;;;;;4982130;28;20041;-75
2023/11/03 06:42:40;;;;;;;0.60;0.40;;;9.00;99.90;;;;;;4987780;28;20030;-77
2023/11/03 06:45:09;;;;;;;1.73;0.98;;;8.90;99.90;;;;;;4988746;28;20030;-76
2023/11/03 06:47:36;;;;;;;2.22;1.27;;;9.00;99.90;;;;;;4984900;28;20041;-76
2023/11/03 06:50:03;;;;;;;2.83;1.80;;;8.90;99.90;;;;;;4984172;28;20059;-76
2023/11/03 06:52:29;;;;;;;2.10;1.00;;;8.90;99.90;;;;;;4986570;28;20056;-76
2023/11/03 06:54:55;;;;;;;1.67;0.82;;;9.00;99.90;;;;;;4990105;28;20034;-76
2023/11/03 06:57:21;;;;;;;2.10;0.75;;;8.90;99.90;;;;;;4988932;28;20057;-76
2023/11/03 06:59:47;;;;;;;2.05;1.05;;;8.90;99.90;;;;;;4989023;28;20124;-76
2023/11/03 07:02:12;;;;;;;1.98;0.90;;;8.90;99.90;;;;;;4992342;28;20030;-76
2023/11/03 07:04:38;;;;;;;0.70;0.60;;;9.00;99.90;;;;;;4989306;28;20379;-76
2023/11/03 07:07:07;;;;;;;1.25;0.70;;;8.90;99.90;;;;;;4993600;28;20041;-76
2023/11/03 07:09:33;;;;;;;2.80;0.77;;;8.90;99.90;;;;;;4986733;28;20032;-76
2023/11/03 07:12:05;;;;;;;2.70;0.80;;;9.00;99.90;;;;;;4992731;28;20032;-76
2023/11/03 07:14:31;;;;;;;1.98;0.93;;;8.90;99.90;;;;;;4983768;28;20034;-76
2023/11/03 07:16:57;;;;;;;1.77;0.75;;;9.00;99.90;;;;;;4993321;28;20038;-77
2023/11/03 07:19:23;;;;;;;3.22;1.20;;;9.00;99.90;;;;;;4988051;28;20043;-76
2023/11/03 07:21:50;;;;;;;1.48;0.70;;;8.90;99.90;;;;;;4983711;28;20030;-76
2023/11/03 07:24:17;;;;;;;1.88;0.60;;;8.80;99.90;;;;;;4986951;28;20049;-76
2023/11/03 07:26:44;;;;;;;2.40;1.15;;;8.70;99.90;;;;;;4988217;28;20364;-76
2023/11/03 07:29:10;;;;;;;8.65;3.30;;;8.80;99.90;;;;;;4984712;28;20156;-76
2023/11/03 07:31:38;;;;;;;28.67;13.98;;;8.90;99.90;;;;;;4989606;28;20034;-77
2023/11/03 07:34:05;;;;;;;8.13;4.43;;;8.90;99.90;;;;;;4993191;28;20056;-76
2023/11/03 07:36:31;;;;;;;7.13;4.80;;;8.80;99.90;;;;;;4990962;28;20586;-76
2023/11/03 07:38:59;;;;;;;3.00;1.42;;;8.80;99.90;;;;;;4988006;28;20172;-77
2023/11/03 07:41:25;;;;;;;5.95;4.68;;;8.70;99.90;;;;;;4988294;28;20046;-74
2023/11/03 07:43:51;;;;;;;7.70;6.88;;;8.70;99.90;;;;;;4990862;28;20027;-76
2023/11/03 07:46:19;;;;;;;7.50;5.40;;;8.90;99.90;;;;;;4999924;28;20078;-78
2023/11/03 07:48:45;;;;;;;3.67;2.20;;;8.90;99.90;;;;;;4984912;28;20505;-78
2023/11/03 07:51:11;;;;;;;2.47;1.02;;;8.80;99.90;;;;;;4985131;28;20080;-76
2023/11/03 07:53:37;;;;;;;0.93;0.60;;;8.60;99.90;;;;;;4992533;28;20053;-76
2023/11/03 07:56:03;;;;;;;1.27;0.60;;;8.60;99.90;;;;;;4997394;28;20042;-76
2023/11/03 07:58:29;;;;;;;13.73;8.38;;;8.50;99.90;;;;;;5003850;28;21997;-76
2023/11/03 08:00:56;;;;;;;6.57;3.75;;;8.60;99.90;;;;;;4997425;28;20049;-75
2023/11/03 08:03:22;;;;;;;15.88;14.20;;;8.70;99.90;;;;;;4993718;28;20018;-78
2023/11/03 08:05:47;;;;;;;1.92;0.90;;;8.60;99.90;;;;;;4988541;28;20507;-76
2023/11/03 08:08:14;;;;;;;1.25;0.40;;;8.40;99.90;;;;;;4987637;28;20022;-77
2023/11/03 08:10:39;;;;;;;3.38;0.90;;;8.20;99.90;;;;;;4985255;28;20026;-76
2023/11/03 08:13:05;;;;;;;3.65;1.95;;;8.20;99.90;;;;;;4984930;28;20045;-77
2023/11/03 08:15:31;;;;;;;3.60;1.02;;;8.30;99.90;;;;;;4987544;28;20034;-76
2023/11/03 08:17:56;;;;;;;0.77;0.45;;;8.40;99.90;;;;;;4990443;28;20117;-77
2023/11/03 08:20:22;;;;;;;1.38;0.65;;;8.40;99.90;;;;;;4989986;28;20175;-76
2023/11/03 08:22:49;;;;;;;1.10;0.32;;;8.20;99.90;;;;;;4999402;28;20046;-75
2023/11/03 08:25:15;;;;;;;0.90;0.38;;;8.20;99.90;;;;;;4989146;28;20080;-76
2023/11/03 08:27:40;;;;;;;0.55;0.30;;;8.30;99.90;;;;;;4990276;28;20034;-76
2023/11/03 08:30:08;;;;;;;3.00;1.48;;;8.30;99.90;;;;;;4990744;28;20030;-76
2023/11/03 08:32:35;;;;;;;4.18;3.78;;;8.40;99.90;;;;;;4990673;28;20022;-77
2023/11/03 08:35:03;;;;;;;3.83;2.50;;;8.40;99.90;;;;;;4986934;28;20057;-77
2023/11/03 08:37:28;;;;;;;4.15;2.30;;;8.40;99.90;;;;;;4986518;28;20117;-80
2023/11/03 08:39:54;;;;;;;1.65;1.23;;;8.10;99.90;;;;;;4990671;28;20764;-78
2023/11/03 08:42:21;;;;;;;2.45;1.15;;;8.20;99.90;;;;;;4987427;28;20093;-77
2023/11/03 08:44:47;;;;;;;2.13;1.00;;;8.20;99.90;;;;;;4999183;28;20423;-76
2023/11/03 08:47:13;;;;;;;2.15;0.75;;;8.20;99.90;;;;;;4996072;28;20041;-77
2023/11/03 08:49:39;;;;;;;1.83;0.85;;;8.10;99.90;;;;;;4997704;28;20054;-76
2023/11/03 08:52:04;;;;;;;0.93;0.45;;;8.20;99.90;;;;;;4987414;28;20117;-76
2023/11/03 08:54:30;;;;;;;2.25;0.70;;;8.20;99.90;;;;;;4987803;28;20030;-76
2023/11/03 08:56:56;;;;;;;10.73;6.50;;;8.10;99.90;;;;;;5003521;28;20064;-76
2023/11/03 08:59:22;;;;;;;15.88;7.43;;;8.20;99.90;;;;;;5006191;28;20084;-76
2023/11/03 09:01:47;;;;;;;8.05;4.72;;;8.30;99.90;;;;;;4998829;28;20461;-77
2023/11/03 09:04:14;;;;;;;10.98;4.63;;;8.30;99.90;;;;;;5001095;28;20084;-75
2023/11/03 09:06:40;;;;;;;6.47;4.65;;;8.20;99.90;;;;;;4997418;28;20022;-77
2023/11/03 09:09:06;;;;;;;7.68;5.78;;;8.30;99.90;;;;;;5006007;28;20117;-76
2023/11/03 09:11:32;;;;;;;3.15;1.23;;;8.20;99.90;;;;;;5005198;28;20061;-76
2023/11/03 09:14:01;;;;;;;2.20;1.10;;;8.00;99.90;;;;;;4987556;28;20057;-76
2023/11/03 09:16:27;;;;;;;1.15;0.50;;;7.90;99.90;;;;;;4994002;28;20030;-76
2023/11/03 09:18:53;;;;;;;0.77;0.30;;;7.80;99.90;;;;;;5006099;28;20530;-77
2023/11/03 09:21:19;;;;;;;1.25;0.47;;;7.80;99.90;;;;;;5005422;28;20030;-76
2023/11/03 09:23:46;;;;;;;1.02;0.60;;;7.60;99.90;;;;;;5006257;28;20038;-77
2023/11/03 09:26:11;;;;;;;1.30;0.50;;;7.70;99.90;;;;;;5005521;28;20030;-76
2023/11/03 09:28:38;;;;;;;0.22;0.22;;;7.60;99.90;;;;;;5003406;28;20112;-76
2023/11/03 09:31:05;;;;;;;0.98;0.30;;;7.50;99.90;;;;;;4991172;28;20042;-77
2023/11/03 09:33:31;;;;;;;4.95;3.13;;;7.50;99.90;;;;;;4986211;28;20018;-76
2023/11/03 09:35:57;;;;;;;4.32;2.30;;;7.60;99.90;;;;;;4988062;28;20037;-77
2023/11/03 09:38:22;;;;;;;25.50;17.58;;;7.80;99.90;;;;;;4984448;28;20389;-76
2023/11/03 09:40:48;;;;;;;20.63;14.95;;;7.70;99.90;;;;;;4985916;28;20034;-76
2023/11/03 09:43:14;;;;;;;7.80;4.65;;;7.80;99.90;;;;;;4993663;28;20061;-76
2023/11/03 09:45:42;;;;;;;3.20;1.70;;;7.70;99.90;;;;;;4985318;28;20507;-76
2023/11/03 09:48:08;;;;;;;5.68;4.55;;;7.50;99.90;;;;;;4984231;28;20826;-77
2023/11/03 09:50:35;;;;;;;4.13;2.53;;;7.60;99.90;;;;;;4985166;28;20088;-76
2023/11/03 09:53:07;;;;;;;1.65;0.90;;;7.80;99.90;;;;;;4985878;28;20061;-76
2023/11/03 09:55:36;;;;;;;2.35;0.70;;;7.90;99.90;;;;;;4992508;28;20136;-76
2023/11/03 09:58:05;;;;;;;2.22;0.90;;;7.70;99.90;;;;;;5006065;28;20045;-77
2023/11/03 10:00:32;;;;;;;3.15;2.15;;;7.70;99.90;;;;;;4994388;28;20026;-76
2023/11/03 10:02:58;;;;;;;1.70;1.00;;;7.90;99.90;;;;;;5006142;28;20033;-76
2023/11/03 10:05:26;;;;;;;1.33;0.77;;;7.90;99.90;;;;;;5003347;28;20037;-76
2023/11/03 10:08:02;;;;;;;1.77;0.80;;;7.50;99.90;;;;;;5000069;28;20084;-76
2023/11/03 10:10:37;;;;;;;2.20;0.98;;;7.80;99.90;;;;;;4993187;28;20045;-75
2023/11/03 10:13:10;;;;;;;1.60;0.80;;;7.80;99.90;;;;;;4997150;28;20109;-76
2023/11/03 10:15:39;;;;;;;0.55;0.40;;;7.80;99.90;;;;;;5001590;28;20029;-76
2023/11/03 10:18:05;;;;;;;1.90;0.98;;;7.90;99.90;;;;;;5004974;28;20038;-75
2023/11/03 10:20:31;;;;;;;1.75;0.80;;;8.00;99.90;;;;;;4993312;28;20045;-75
2023/11/03 10:22:57;;;;;;;4.22;2.33;;;8.00;99.90;;;;;;4986494;28;20600;-76
2023/11/03 10:25:26;;;;;;;2.78;1.15;;;8.10;99.90;;;;;;4986735;28;20026;-75
2023/11/03 10:27:54;;;;;;;2.10;0.98;;;8.00;99.90;;;;;;4996044;28;20040;-76
2023/11/03 10:30:25;;;;;;;1.25;0.70;;;8.10;99.90;;;;;;5005056;28;20026;-76
2023/11/03 10:32:52;;;;;;;1.30;0.40;;;8.10;99.90;;;;;;5003492;28;20025;-76
2023/11/03 10:35:18;;;;;;;0.73;0.38;;;8.00;99.90;;;;;;5005174;28;20025;-77
2023/11/03 10:37:46;;;;;;;1.92;1.00;;;7.90;99.90;;;;;;4997424;28;20052;-80
2023/11/03 10:40:15;;;;;;;1.55;0.90;;;8.00;99.90;;;;;;5000717;28;20033;-76
2023/11/03 10:42:50;;;;;;;1.13;0.63;;;8.10;99.90;;;;;;5005617;28;20026;-76
2023/11/03 10:45:20;;;;;;;0.70;0.28;;;8.00;99.90;;;;;;5004223;28;20110;-75
2023/11/03 10:48:23;;;;;;;1.27;0.63;;;8.10;99.90;;;;;;5004673;28;20352;-76
2023/11/03 10:50:54;;;;;;;2.38;0.68;;;8.30;99.90;;;;;;4997835;28;20034;-75
2023/11/03 10:53:46;;;;;;;1.45;0.63;;;8.30;99.90;;;;;;4996212;28;20029;-77
2023/11/03 10:56:13;;;;;;;1.08;0.40;;;8.30;99.90;;;;;;4989075;28;20930;-75
2023/11/03 10:58:39;;;;;;;1.02;0.45;;;8.40;99.90;;;;;;4980728;28;20125;-76
2023/11/03 11:01:48;;;;;;;0.70;0.40;;;8.60;99.90;;;;;;4981847;28;20566;-75
2023/11/03 11:04:21;;;;;;;1.90;0.70;;;8.60;99.90;;;;;;4978972;28;20042;-76
2023/11/03 11:07:07;;;;;;;0.45;0.43;;;8.70;99.90;;;;;;4987623;28;20026;-76
2023/11/03 11:09:34;;;;;;;0.85;0.52;;;8.60;99.90;;;;;;4983814;28;20046;-76
2023/11/03 11:12:02;;;;;;;0.38;0.28;;;8.70;99.90;;;;;;4982782;28;20138;-77
2023/11/03 11:14:32;;;;;;;1.10;0.45;;;8.80;99.90;;;;;;4972865;28;20038;-76
2023/11/03 11:16:58;;;;;;;1.98;0.47;;;8.70;99.90;;;;;;4983993;28;20046;-76
2023/11/03 11:19:45;;;;;;;1.33;0.32;;;8.80;99.90;;;;;;4982312;28;20030;-76
2023/11/03 11:22:17;;;;;;;1.02;0.40;;;8.80;99.90;;;;;;4982551;28;20138;-76
2023/11/03 11:24:44;;;;;;;0.65;0.30;;;8.80;99.90;;;;;;4983677;28;20424;-76
2023/11/03 11:27:19;;;;;;;0.93;0.40;;;8.80;99.90;;;;;;4991850;28;20528;-76
2023/11/03 11:29:49;;;;;;;2.72;0.93;;;8.90;99.90;;;;;;4990584;28;20121;-77
2023/11/03 11:32:15;;;;;;;3.15;1.58;;;8.80;99.90;;;;;;4984692;28;20026;-76
2023/11/03 11:34:42;;;;;;;1.05;0.50;;;9.00;99.90;;;;;;4997497;28;20060;-76
2023/11/03 11:37:30;;;;;;;1.05;0.40;;;8.90;99.90;;;;;;4988140;28;20053;-76
2023/11/03 11:40:05;;;;;;;2.67;0.60;;;8.90;99.90;;;;;;4990859;28;20033;-75
2023/11/03 11:42:32;;;;;;;1.60;0.35;;;8.90;99.90;;;;;;4992034;28;20045;-77
2023/11/03 11:44:59;;;;;;;0.30;0.30;;;9.00;99.90;;;;;;4992580;28;20029;-78
2023/11/03 11:47:26;;;;;;;0.98;0.50;;;9.00;99.90;;;;;;4983834;28;20035;-76
2023/11/03 11:49:56;;;;;;;0.98;0.28;;;9.00;99.90;;;;;;4990259;28;20046;-77
2023/11/03 11:52:25;;;;;;;0.98;0.50;;;9.00;99.90;;;;;;4983691;28;20100;-76
2023/11/03 11:54:56;;;;;;;0.75;0.40;;;9.10;99.90;;;;;;4989716;28;20141;-77
2023/11/03 11:57:26;;;;;;;0.73;0.40;;;9.10;99.90;;;;;;4986835;28;20029;-77
2023/11/03 11:59:55;;;;;;;9.02;0.90;;;9.10;99.90;;;;;;4982560;28;20038;-76
2023/11/03 12:02:22;;;;;;;2.20;0.60;;;9.20;99.90;;;;;;4985290;28;20096;-76
2023/11/03 12:04:54;;;;;;;1.73;0.65;;;9.10;99.90;;;;;;4990857;28;20030;-77
2023/11/03 12:07:25;;;;;;;1.75;0.57;;;9.10;99.90;;;;;;4991865;28;20113;-77
2023/11/03 12:09:53;;;;;;;1.35;0.60;;;9.10;99.90;;;;;;4990999;28;20085;-78
2023/11/03 12:12:22;;;;;;;1.23;0.50;;;9.10;99.90;;;;;;4993866;28;20041;-75
2023/11/03 12:14:48;;;;;;;2.20;0.60;;;9.10;99.90;;;;;;4995067;28;20034;-74
2023/11/03 12:17:14;;;;;;;2.95;0.50;;;9.00;99.90;;;;;;4971496;28;20108;-76
2023/11/03 12:19:46;;;;;;;1.30;0.40;;;9.10;99.90;;;;;;4989477;28;20043;-76
2023/11/03 12:22:26;;;;;;;0.60;0.43;;;8.90;99.90;;;;;;5003418;28;20503;-76
2023/11/03 12:24:55;;;;;;;0.65;0.30;;;9.00;99.90;;;;;;5000927;28;20483;-76
2023/11/03 12:27:22;;;;;;;1.23;0.45;;;9.10;99.90;;;;;;4988950;28;20245;-76
2023/11/03 12:29:48;;;;;;;1.85;0.65;;;9.10;99.90;;;;;;4993527;28;20391;-76
2023/11/03 12:32:15;;;;;;;1.27;0.43;;;9.10;99.90;;;;;;4996158;28;20033;-76
2023/11/03 12:34:42;;;;;;;0.85;0.45;;;9.10;99.90;;;;;;4998092;28;20100;-76
2023/11/03 12:37:09;;;;;;;3.85;0.70;;;9.00;99.90;;;;;;4993021;28;20072;-75
2023/11/03 12:39:52;;;;;;;0.68;0.32;;;9.00;99.90;;;;;;4997511;28;20045;-76
2023/11/03 12:42:22;;;;;;;0.80;0.40;;;8.90;99.90;;;;;;4992143;28;20422;-76
2023/11/03 12:44:56;;;;;;;0.90;0.35;;;9.00;99.90;;;;;;4978515;28;20388;-75
2023/11/03 12:47:49;;;;;;;1.15;0.40;;;9.00;99.90;;;;;;4984946;28;20038;-75
2023/11/03 12:50:22;;;;;;;0.35;0.28;;;8.90;99.90;;;;;;4993112;28;20181;-75
2023/11/03 12:52:48;;;;;;;0.90;0.30;;;8.90;99.90;;;;;;4990799;28;20117;-75
2023/11/03 12:55:25;;;;;;;0.63;0.30;;;8.90;99.90;;;;;;4983479;28;20451;-77